Time;durP1;ratioP1;P1;durP2;ratioP2;P2;SDS_P1;SDS_P2;PMS_P1;PMS_P2;Temp;Humidity;BMP_temperature;BMP_pressure;BME280_temperature;BME280_humidity;BME280_pressure;Samples;Min_cycle;Max_cycle;Signal;HPM_P1;HPM_P2
2021/03/22 00:02:08;;;;;;;69.95;11.23;;;3.40;1.00;;;;;;5131951;27;20202;-66
2021/03/22 00:04:34;;;;;;;77.25;11.80;;;3.40;1.00;;;;;;5131948;27;20206;-66
2021/03/22 00:07:00;;;;;;;80.32;10.95;;;3.30;1.00;;;;;;5132019;27;20310;-66
2021/03/22 00:09:27;;;;;;;81.35;10.95;;;3.30;1.00;;;;;;5135647;27;20764;-66
2021/03/22 00:11:53;;;;;;;72.53;11.27;;;3.20;1.00;;;;;;5136092;27;20203;-66
2021/03/22 00:14:19;;;;;;;72.97;11.27;;;3.20;1.00;;;;;;5135633;27;20210;-66
2021/03/22 00:16:47;;;;;;;66.15;9.85;;;3.10;1.00;;;;;;5135408;27;20314;-66
2021/03/22 00:19:14;;;;;;;75.30;11.50;;;3.00;1.00;;;;;;5135649;27;20692;-66
2021/03/22 00:21:41;;;;;;;76.50;10.35;;;2.90;1.00;;;;;;5135481;27;20207;-66
2021/03/22 00:24:09;;;;;;;75.95;11.80;;;2.90;1.00;;;;;;5135531;27;20211;-66
2021/03/22 00:26:35;;;;;;;75.75;9.98;;;2.90;1.00;;;;;;5135589;27;20230;-66
2021/03/22 00:29:03;;;;;;;69.13;10.75;;;2.80;1.00;;;;;;5135656;27;20708;-66
2021/03/22 00:31:29;;;;;;;76.45;10.50;;;2.80;1.00;;;;;;5135502;27;20293;-66
2021/03/22 00:33:55;;;;;;;80.25;11.63;;;2.80;1.00;;;;;;5135202;27;20207;-66
2021/03/22 00:36:23;;;;;;;80.70;11.98;;;2.80;1.00;;;;;;5134996;27;20325;-66
2021/03/22 00:38:49;;;;;;;79.57;11.10;;;2.80;1.00;;;;;;5135295;27;20291;-67
2021/03/22 00:41:15;;;;;;;72.20;10.05;;;2.80;1.00;;;;;;5135242;27;20750;-67
2021/03/22 00:43:42;;;;;;;70.47;10.65;;;2.80;1.00;;;;;;5135166;27;20734;-67
2021/03/22 00:46:08;;;;;;;73.95;9.98;;;2.80;1.00;;;;;;5135161;27;20833;-67
2021/03/22 00:48:36;;;;;;;75.70;10.63;;;2.80;1.00;;;;;;5134802;27;20225;-67
2021/03/22 00:51:04;;;;;;;75.32;11.30;;;2.90;1.00;;;;;;5134807;27;20474;-67
2021/03/22 00:53:32;;;;;;;70.32;10.07;;;2.90;1.00;;;;;;5134958;27;20203;-66
2021/03/22 00:55:58;;;;;;;76.90;10.40;;;2.90;1.00;;;;;;5135003;27;20226;-67
2021/03/22 00:58:24;;;;;;;69.57;10.93;;;2.90;1.00;;;;;;5134765;27;20713;-67
2021/03/22 01:00:53;;;;;;;75.32;9.88;;;3.00;1.00;;;;;;5134840;27;20238;-67
2021/03/22 01:03:23;;;;;;;74.03;10.60;;;3.00;1.00;;;;;;5134510;27;20671;-67
2021/03/22 01:05:50;;;;;;;72.85;9.85;;;3.10;1.00;;;;;;5134775;27;20289;-67
2021/03/22 01:08:17;;;;;;;78.88;9.95;;;3.10;1.00;;;;;;5134560;27;20257;-67
2021/03/22 01:10:48;;;;;;;64.88;8.27;;;3.10;1.00;;;;;;5134646;27;20285;-65
2021/03/22 01:13:17;;;;;;;72.90;8.95;;;3.10;1.00;;;;;;5134527;27;20260;-65
2021/03/22 01:15:44;;;;;;;81.18;10.85;;;3.20;1.00;;;;;;5134420;27;20234;-65
2021/03/22 01:18:11;;;;;;;70.30;9.75;;;3.20;1.00;;;;;;5134132;27;20605;-65
2021/03/22 01:20:46;;;;;;;71.18;9.93;;;3.20;1.00;;;;;;5133703;27;20206;-65
2021/03/22 01:23:13;;;;;;;69.13;9.55;;;3.20;1.00;;;;;;5134215;27;20199;-65
2021/03/22 01:25:40;;;;;;;72.70;9.30;;;3.20;1.00;;;;;;5134319;27;20208;-65
2021/03/22 01:28:09;;;;;;;67.13;10.10;;;3.20;1.00;;;;;;5134337;27;20257;-65
2021/03/22 01:30:39;;;;;;;69.28;8.98;;;3.30;1.00;;;;;;5134021;27;20289;-65
2021/03/22 01:33:09;;;;;;;74.50;10.27;;;3.30;1.00;;;;;;5134238;27;20203;-66
2021/03/22 01:35:35;;;;;;;70.50;11.50;;;3.30;1.00;;;;;;5133979;27;20210;-66
2021/03/22 01:38:02;;;;;;;78.85;10.13;;;3.30;1.00;;;;;;5134094;27;20317;-66
2021/03/22 01:41:00;;;;;;;68.97;9.57;;;3.30;1.00;;;;;;5134496;27;20202;-66
2021/03/22 01:44:07;;;;;;;71.57;9.30;;;3.30;1.00;;;;;;5118115;27;20690;-66
2021/03/22 01:46:36;;;;;;;71.50;8.85;;;3.30;1.00;;;;;;5125309;27;20234;-66
2021/03/22 01:49:04;;;;;;;70.18;9.75;;;3.30;1.00;;;;;;5133758;27;20236;-66
2021/03/22 01:51:31;;;;;;;70.72;10.05;;;3.40;1.00;;;;;;5133830;27;20744;-66
2021/03/22 01:53:58;;;;;;;68.70;8.75;;;3.40;1.00;;;;;;5133563;27;20289;-66
2021/03/22 01:56:30;;;;;;;71.93;9.05;;;3.40;1.00;;;;;;5133546;27;20318;-66
2021/03/22 01:58:57;;;;;;;69.35;9.27;;;3.40;1.00;;;;;;5133651;27;20229;-66
2021/03/22 02:01:28;;;;;;;66.18;8.57;;;3.40;1.00;;;;;;5133645;27;20298;-66
2021/03/22 02:03:55;;;;;;;70.85;10.32;;;3.40;1.00;;;;;;5133293;27;20646;-66
2021/03/22 02:06:22;;;;;;;66.50;9.35;;;3.50;1.00;;;;;;5133362;27;20199;-65
2021/03/22 02:08:50;;;;;;;71.53;7.97;;;3.50;1.00;;;;;;5133296;27;20740;-66
2021/03/22 02:11:18;;;;;;;71.03;7.78;;;3.50;1.00;;;;;;5133376;27;20293;-67
2021/03/22 02:13:45;;;;;;;70.80;7.30;;;3.50;1.00;;;;;;5133352;27;20198;-66
2021/03/22 02:16:16;;;;;;;68.78;7.47;;;3.50;1.00;;;;;;5133650;27;20219;-67
2021/03/22 02:18:57;;;;;;;71.63;7.68;;;3.50;1.00;;;;;;5133042;27;20825;-67
2021/03/22 02:21:57;;;;;;;80.20;7.82;;;3.60;1.00;;;;;;5133390;27;20205;-66
2021/03/22 02:24:55;;;;;;;65.90;6.78;;;3.60;1.00;;;;;;5133256;27;20203;-67
2021/03/22 02:27:58;;;;;;;70.43;7.38;;;3.70;1.00;;;;;;5133094;27;20778;-67
2021/03/22 02:30:57;;;;;;;68.75;7.32;;;3.70;1.00;;;;;;5132860;27;20203;-67
2021/03/22 02:33:51;;;;;;;63.83;6.80;;;3.70;1.00;;;;;;5132942;27;20342;-67
2021/03/22 02:36:24;;;;;;;73.78;8.95;;;3.70;1.00;;;;;;5132866;27;20229;-67
2021/03/22 02:38:55;;;;;;;75.97;6.93;;;3.70;1.00;;;;;;5133132;27;20222;-66
2021/03/22 02:41:24;;;;;;;70.93;6.95;;;3.80;1.00;;;;;;5132714;27;20227;-67
2021/03/22 02:44:02;;;;;;;70.93;6.60;;;3.80;1.00;;;;;;5132875;27;20199;-66
2021/03/22 02:46:29;;;;;;;77.68;6.80;;;3.80;1.00;;;;;;5132996;27;20290;-66
2021/03/22 02:48:56;;;;;;;71.70;6.60;;;3.80;1.00;;;;;;5132765;27;20263;-66
2021/03/22 02:51:29;;;;;;;70.43;6.32;;;3.80;1.00;;;;;;5132769;27;20293;-66
2021/03/22 02:54:04;;;;;;;71.57;6.28;;;3.80;1.00;;;;;;5132444;27;20251;-66
2021/03/22 02:56:38;;;;;;;70.13;6.93;;;3.80;1.00;;;;;;5132795;27;20371;-67
2021/03/22 02:59:12;;;;;;;67.00;5.57;;;3.80;1.00;;;;;;5132857;27;20209;-66
2021/03/22 03:01:42;;;;;;;67.25;6.53;;;3.80;1.00;;;;;;5132576;27;20294;-66
2021/03/22 03:04:11;;;;;;;65.68;6.63;;;3.80;1.00;;;;;;5132545;27;20207;-66
2021/03/22 03:06:52;;;;;;;71.53;7.05;;;3.80;1.00;;;;;;5132430;27;20206;-67
2021/03/22 03:09:21;;;;;;;64.22;6.00;;;3.80;1.00;;;;;;5132650;27;20202;-66
2021/03/22 03:11:48;;;;;;;67.32;5.75;;;3.80;1.00;;;;;;5132575;27;20211;-66
2021/03/22 03:14:14;;;;;;;67.90;6.90;;;3.80;1.00;;;;;;5132355;27;20229;-67
2021/03/22 03:16:41;;;;;;;68.32;5.55;;;3.80;1.00;;;;;;5132141;27;20310;-67
2021/03/22 03:19:08;;;;;;;73.15;7.40;;;3.80;1.00;;;;;;5132593;27;20585;-66
2021/03/22 03:21:35;;;;;;;68.63;6.25;;;3.80;1.00;;;;;;5132671;27;20298;-66
2021/03/22 03:24:03;;;;;;;64.80;5.78;;;3.80;1.00;;;;;;5132388;27;20206;-66
2021/03/22 03:26:29;;;;;;;66.40;6.90;;;3.80;1.00;;;;;;5132383;27;20195;-66
2021/03/22 03:28:55;;;;;;;64.53;5.72;;;3.80;1.00;;;;;;5132161;27;20223;-66
2021/03/22 03:31:22;;;;;;;69.10;6.80;;;3.80;1.00;;;;;;5132076;27;20213;-66
2021/03/22 03:33:48;;;;;;;63.75;6.50;;;3.80;1.00;;;;;;5132328;27;20199;-67
2021/03/22 03:36:14;;;;;;;67.70;5.03;;;3.80;1.00;;;;;;5132193;27;20254;-67
2021/03/22 03:38:41;;;;;;;63.50;5.57;;;3.80;1.00;;;;;;5132250;27;20218;-67
2021/03/22 03:41:08;;;;;;;66.53;6.47;;;3.80;1.00;;;;;;5132336;27;20199;-66
2021/03/22 03:43:35;;;;;;;70.32;6.68;;;3.70;1.00;;;;;;5134988;27;20202;-66
2021/03/22 03:46:02;;;;;;;72.30;5.22;;;3.70;1.00;;;;;;5136196;27;20210;-66
2021/03/22 03:48:28;;;;;;;63.95;5.32;;;3.70;1.00;;;;;;5136287;27;20248;-66
2021/03/22 03:50:56;;;;;;;62.33;4.40;;;3.70;1.00;;;;;;5136334;27;20673;-66
2021/03/22 03:53:23;;;;;;;64.60;5.57;;;3.70;1.00;;;;;;5136246;27;20306;-66
2021/03/22 03:55:50;;;;;;;66.53;5.10;;;3.70;1.00;;;;;;5135947;27;20698;-66
2021/03/22 03:58:17;;;;;;;67.03;4.93;;;3.70;1.00;;;;;;5135813;27;20252;-66
2021/03/22 04:00:46;;;;;;;65.57;5.82;;;3.60;1.00;;;;;;5136184;27;20289;-66
2021/03/22 04:03:25;;;;;;;63.70;5.40;;;3.60;1.00;;;;;;5136087;27;20682;-66
2021/03/22 04:05:57;;;;;;;69.47;6.80;;;3.60;1.00;;;;;;5135998;27;20238;-67
2021/03/22 04:08:24;;;;;;;63.85;4.97;;;3.60;1.00;;;;;;5135694;27;20223;-67
2021/03/22 04:10:51;;;;;;;66.28;4.90;;;3.60;1.00;;;;;;5135903;27;20576;-66
2021/03/22 04:13:19;;;;;;;63.95;5.70;;;3.60;1.00;;;;;;5135539;27;20222;-67
2021/03/22 04:15:46;;;;;;;66.93;5.45;;;3.60;1.00;;;;;;5135829;27;20337;-67
2021/03/22 04:18:13;;;;;;;63.78;5.13;;;3.60;1.00;;;;;;5135578;27;20264;-66
2021/03/22 04:20:40;;;;;;;64.55;5.18;;;3.60;1.00;;;;;;5135609;27;20289;-66
2021/03/22 04:23:07;;;;;;;64.90;4.80;;;3.60;1.00;;;;;;5135483;27;20304;-67
2021/03/22 04:25:33;;;;;;;60.53;4.32;;;3.60;1.00;;;;;;5135228;27;20244;-67
2021/03/22 04:28:00;;;;;;;61.88;4.38;;;3.60;1.00;;;;;;5135374;27;20250;-67
2021/03/22 04:30:28;;;;;;;64.25;5.00;;;3.60;1.00;;;;;;5135538;27;20203;-66
2021/03/22 04:32:54;;;;;;;62.05;5.03;;;3.60;1.00;;;;;;5135226;27;20199;-67
2021/03/22 04:35:21;;;;;;;60.78;4.03;;;3.60;1.00;;;;;;5135274;27;20639;-66
2021/03/22 04:37:48;;;;;;;76.32;6.20;;;3.60;1.00;;;;;;5135182;27;20706;-66
2021/03/22 04:40:16;;;;;;;66.70;5.18;;;3.60;1.00;;;;;;5134993;27;20642;-66
2021/03/22 04:42:42;;;;;;;67.82;5.82;;;3.60;1.00;;;;;;5135282;27;20246;-66
2021/03/22 04:45:11;;;;;;;66.32;3.83;;;3.60;1.00;;;;;;5135264;27;20591;-67
2021/03/22 04:47:38;;;;;;;65.95;5.10;;;3.60;1.00;;;;;;5135026;27;20267;-66
2021/03/22 04:50:05;;;;;;;63.92;5.03;;;3.60;1.00;;;;;;5134988;27;20636;-66
2021/03/22 04:52:32;;;;;;;67.40;4.47;;;3.60;1.00;;;;;;5134817;27;20257;-67
2021/03/22 04:54:58;;;;;;;69.05;5.00;;;3.60;1.00;;;;;;5134814;27;20257;-67
2021/03/22 04:57:28;;;;;;;63.33;5.80;;;3.60;1.00;;;;;;5134924;27;20698;-67
2021/03/22 04:59:55;;;;;;;70.15;5.45;;;3.60;1.00;;;;;;5134973;27;20246;-66
2021/03/22 05:02:21;;;;;;;64.72;4.97;;;3.60;1.00;;;;;;5134846;27;20583;-66
2021/03/22 05:04:49;;;;;;;65.88;5.68;;;3.60;1.00;;;;;;5134859;27;20234;-67
2021/03/22 05:07:16;;;;;;;66.85;4.45;;;3.60;1.00;;;;;;5134494;27;20729;-67
2021/03/22 05:09:43;;;;;;;61.03;4.43;;;3.60;1.00;;;;;;5134594;27;20291;-66
2021/03/22 05:12:11;;;;;;;74.20;5.03;;;3.60;1.00;;;;;;5134657;27;20804;-66
2021/03/22 05:14:37;;;;;;;64.80;5.05;;;3.60;1.00;;;;;;5134672;27;20247;-67
2021/03/22 05:17:04;;;;;;;68.15;5.65;;;3.60;1.00;;;;;;5134519;27;20223;-66
2021/03/22 05:19:30;;;;;;;67.13;4.70;;;3.60;1.00;;;;;;5134374;27;20246;-67
2021/03/22 05:21:58;;;;;;;62.78;4.32;;;3.60;1.00;;;;;;5134157;27;20760;-67
2021/03/22 05:24:26;;;;;;;67.53;6.00;;;3.60;1.00;;;;;;5134355;27;20679;-67
2021/03/22 05:26:53;;;;;;;71.30;4.78;;;3.70;1.00;;;;;;5134305;27;20258;-67
2021/03/22 05:29:19;;;;;;;62.35;4.88;;;3.70;1.00;;;;;;5134241;27;20749;-66
2021/03/22 05:31:46;;;;;;;61.67;4.57;;;3.70;1.00;;;;;;5134172;27;20298;-67
2021/03/22 05:34:13;;;;;;;69.20;5.25;;;3.70;1.00;;;;;;5133890;27;20206;-66
2021/03/22 05:36:39;;;;;;;66.90;5.18;;;3.70;1.00;;;;;;5133799;27;20367;-67
2021/03/22 05:39:07;;;;;;;65.00;4.88;;;3.70;1.00;;;;;;5134227;27;20298;-67
2021/03/22 05:41:52;;;;;;;70.43;4.32;;;3.70;1.00;;;;;;5134194;27;20209;-67
2021/03/22 05:44:36;;;;;;;66.80;4.95;;;3.70;1.00;;;;;;5134023;27;20255;-66
2021/03/22 05:47:12;;;;;;;64.85;5.15;;;3.70;1.00;;;;;;5134098;27;20215;-67
2021/03/22 05:49:49;;;;;;;64.03;4.68;;;3.80;1.00;;;;;;5133966;27;20646;-66
2021/03/22 05:52:32;;;;;;;66.85;4.95;;;3.80;1.00;;;;;;5133764;27;20249;-66
2021/03/22 05:55:15;;;;;;;67.90;4.28;;;3.80;1.00;;;;;;5133645;27;20587;-66
2021/03/22 05:58:09;;;;;;;67.00;5.45;;;3.80;1.00;;;;;;5134022;27;20314;-66
2021/03/22 06:00:44;;;;;;;65.03;3.90;;;3.90;1.00;;;;;;5133787;27;20213;-66
2021/03/22 06:03:21;;;;;;;62.28;5.03;;;3.90;1.00;;;;;;5133585;27;20209;-67
2021/03/22 06:05:52;;;;;;;65.43;4.43;;;3.90;1.00;;;;;;5133032;27;20289;-67
2021/03/22 06:08:27;;;;;;;62.92;4.28;;;3.90;1.00;;;;;;5133430;27;20219;-66
2021/03/22 06:10:56;;;;;;;62.13;4.20;;;4.00;1.00;;;;;;5133449;27;20202;-67
2021/03/22 06:13:27;;;;;;;67.22;4.68;;;4.00;1.00;;;;;;5133372;27;20241;-67
2021/03/22 06:15:57;;;;;;;65.30;4.95;;;4.00;1.00;;;;;;5133157;27;20206;-66
2021/03/22 06:18:30;;;;;;;68.57;4.60;;;4.00;1.00;;;;;;5133356;27;20227;-66
2021/03/22 06:20:58;;;;;;;67.68;5.68;;;4.10;1.00;;;;;;5133390;27;20310;-66
2021/03/22 06:23:34;;;;;;;65.50;5.20;;;4.10;1.00;;;;;;5133178;27;20641;-66
2021/03/22 06:26:01;;;;;;;63.72;4.60;;;4.10;1.00;;;;;;5133188;27;20202;-66
2021/03/22 06:28:31;;;;;;;65.68;5.63;;;4.10;1.00;;;;;;5132745;27;20726;-66
2021/03/22 06:31:02;;;;;;;66.80;6.13;;;4.10;1.00;;;;;;5133365;27;20560;-66
2021/03/22 06:33:32;;;;;;;70.25;5.35;;;4.20;1.00;;;;;;5133117;27;20232;-66
2021/03/22 06:35:59;;;;;;;63.55;5.22;;;4.20;1.00;;;;;;5132906;27;20238;-66
2021/03/22 06:38:25;;;;;;;74.53;6.30;;;4.20;1.00;;;;;;5132716;27;20242;-66
2021/03/22 06:40:51;;;;;;;68.25;5.85;;;4.30;1.00;;;;;;5132761;27;20624;-66
2021/03/22 06:43:21;;;;;;;68.93;5.50;;;4.30;1.00;;;;;;5132953;27;20672;-67
2021/03/22 06:45:51;;;;;;;70.40;6.57;;;4.30;1.00;;;;;;5132914;27;20203;-66
2021/03/22 06:48:28;;;;;;;60.05;4.85;;;4.30;1.00;;;;;;5132668;27;20309;-66
2021/03/22 06:51:16;;;;;;;71.10;4.93;;;4.40;1.00;;;;;;5132862;27;20305;-66
2021/03/22 06:53:44;;;;;;;63.83;5.82;;;4.40;1.00;;;;;;5132801;27;20210;-66
2021/03/22 06:56:23;;;;;;;66.90;4.90;;;4.40;1.00;;;;;;5132692;27;20207;-66
2021/03/22 06:58:52;;;;;;;67.95;5.50;;;4.40;1.00;;;;;;5132578;27;20321;-66
2021/03/22 07:01:24;;;;;;;64.13;5.80;;;4.50;1.00;;;;;;5132649;27;20285;-67
2021/03/22 07:03:52;;;;;;;69.95;5.13;;;4.50;1.00;;;;;;5132389;27;20261;-66
2021/03/22 07:06:20;;;;;;;62.60;5.72;;;4.60;1.00;;;;;;5133205;27;20230;-66
2021/03/22 07:08:48;;;;;;;64.65;5.78;;;4.60;1.00;;;;;;5132571;27;20254;-67
2021/03/22 07:11:17;;;;;;;66.50;5.82;;;4.60;1.00;;;;;;5132579;27;20285;-66
2021/03/22 07:13:59;;;;;;;65.45;6.65;;;4.70;1.00;;;;;;5132538;27;20199;-66
2021/03/22 07:16:27;;;;;;;61.60;5.30;;;4.70;1.00;;;;;;5132171;27;20207;-66
2021/03/22 07:19:17;;;;;;;65.07;5.82;;;4.80;1.00;;;;;;5132469;27;20258;-66
2021/03/22 07:21:50;;;;;;;70.85;5.88;;;4.80;1.00;;;;;;5132731;27;20207;-67
2021/03/22 07:24:21;;;;;;;80.35;7.57;;;4.90;1.00;;;;;;5132427;27;20537;-66
2021/03/22 07:27:03;;;;;;;69.88;6.65;;;4.90;1.00;;;;;;5132162;27;20199;-66
2021/03/22 07:29:43;;;;;;;62.28;5.70;;;5.00;1.00;;;;;;5132914;27;20289;-66
2021/03/22 07:32:25;;;;;;;75.75;7.22;;;5.10;1.00;;;;;;5132644;27;20229;-65
2021/03/22 07:35:08;;;;;;;76.15;6.20;;;5.20;1.00;;;;;;5132669;27;20585;-67
2021/03/22 07:37:42;;;;;;;76.15;6.63;;;5.20;1.00;;;;;;5132502;27;20234;-68
2021/03/22 07:40:16;;;;;;;78.45;7.25;;;5.20;1.00;;;;;;5132441;27;20202;-65
2021/03/22 07:43:00;;;;;;;70.88;5.53;;;5.20;1.00;;;;;;5132269;27;20213;-65
2021/03/22 07:45:43;;;;;;;69.18;5.63;;;5.30;1.00;;;;;;5132011;27;20241;-65
2021/03/22 07:48:34;;;;;;;67.53;5.65;;;5.40;1.00;;;;;;5132217;27;20223;-67
2021/03/22 07:51:11;;;;;;;68.25;5.68;;;5.50;1.00;;;;;;5132161;27;20217;-66
2021/03/22 07:53:42;;;;;;;67.28;5.35;;;5.50;1.00;;;;;;5131916;27;20641;-66
2021/03/22 07:56:14;;;;;;;75.00;5.68;;;5.60;1.00;;;;;;5131955;27;20295;-66
2021/03/22 07:58:56;;;;;;;77.95;6.25;;;5.60;1.00;;;;;;5131052;27;20797;-67
2021/03/22 08:01:31;;;;;;;62.80;5.32;;;5.60;1.00;;;;;;5131963;27;20207;-65
2021/03/22 08:04:24;;;;;;;71.55;5.90;;;5.70;1.00;;;;;;5131999;27;20376;-66
2021/03/22 08:07:00;;;;;;;62.35;4.78;;;5.60;1.00;;;;;;5132127;27;20291;-66
2021/03/22 08:09:44;;;;;;;65.97;5.28;;;5.70;1.00;;;;;;5131926;27;20230;-66
2021/03/22 08:12:17;;;;;;;68.47;5.00;;;5.80;1.00;;;;;;5131805;27;21128;-66
2021/03/22 08:14:43;;;;;;;66.10;5.50;;;5.90;1.00;;;;;;5131762;27;20294;-66
2021/03/22 08:17:33;;;;;;;72.95;5.82;;;6.00;1.00;;;;;;5131631;27;20762;-66
2021/03/22 08:20:10;;;;;;;65.65;5.05;;;6.00;1.00;;;;;;5132003;27;20203;-67
2021/03/22 08:22:43;;;;;;;67.38;5.68;;;6.10;1.00;;;;;;5131832;27;20342;-65
2021/03/22 08:25:24;;;;;;;64.18;4.90;;;6.30;1.00;;;;;;5131634;27;20697;-66
2021/03/22 08:27:57;;;;;;;69.22;5.20;;;6.40;1.00;;;;;;5131965;27;20223;-66
2021/03/22 08:30:34;;;;;;;67.68;6.45;;;6.60;1.00;;;;;;5135468;27;20238;-65
2021/03/22 08:33:09;;;;;;;69.50;6.60;;;6.80;1.00;;;;;;5135527;27;20214;-65
2021/03/22 08:35:39;;;;;;;64.30;5.82;;;6.90;1.00;;;;;;5135313;27;20224;-66
2021/03/22 08:38:11;;;;;;;71.30;6.13;;;7.00;1.00;;;;;;5135385;27;20330;-66
2021/03/22 08:40:51;;;;;;;66.22;5.78;;;7.10;1.00;;;;;;5135550;27;20607;-66
2021/03/22 08:43:25;;;;;;;65.25;4.47;;;7.10;1.00;;;;;;5135199;27;20294;-66
2021/03/22 08:46:05;;;;;;;67.75;6.78;;;7.00;1.00;;;;;;5135156;27;20207;-66
2021/03/22 08:48:33;;;;;;;65.93;6.70;;;6.90;1.00;;;;;;5135296;27;20227;-65
2021/03/22 08:51:01;;;;;;;63.75;5.10;;;6.80;1.00;;;;;;5135332;27;20204;-65
2021/03/22 08:53:34;;;;;;;66.70;4.97;;;6.80;1.00;;;;;;5135078;27;20238;-66
2021/03/22 08:56:05;;;;;;;63.05;5.10;;;6.80;1.00;;;;;;5135141;27;20216;-65
2021/03/22 08:58:35;;;;;;;64.88;4.25;;;6.80;1.00;;;;;;5134649;27;20319;-65
2021/03/22 09:01:18;;;;;;;64.38;4.30;;;6.80;1.00;;;;;;5135364;27;20319;-66
2021/03/22 09:03:50;;;;;;;67.45;5.10;;;6.80;1.00;;;;;;5134836;27;20340;-66
2021/03/22 09:06:20;;;;;;;61.70;4.22;;;6.90;1.00;;;;;;5134814;27;20225;-66
2021/03/22 09:09:16;;;;;;;63.47;5.00;;;6.90;1.00;;;;;;5134541;27;20617;-67
2021/03/22 09:11:44;;;;;;;61.67;4.03;;;6.90;1.00;;;;;;5134903;27;20218;-66
2021/03/22 09:14:40;;;;;;;70.38;5.05;;;6.80;1.00;;;;;;5134486;27;20234;-67
2021/03/22 09:17:25;;;;;;;62.17;4.80;;;6.90;1.00;;;;;;5134244;27;20235;-66
2021/03/22 09:20:12;;;;;;;62.88;4.25;;;7.00;1.00;;;;;;5134455;27;20234;-67
2021/03/22 09:23:00;;;;;;;60.58;3.95;;;7.20;1.00;;;;;;5134221;27;20221;-65
2021/03/22 09:25:55;;;;;;;63.63;4.78;;;7.40;1.00;;;;;;5134336;27;20598;-65
2021/03/22 09:28:41;;;;;;;61.50;4.75;;;7.40;1.00;;;;;;5134487;27;20223;-66
2021/03/22 09:31:36;;;;;;;60.10;4.50;;;7.50;1.00;;;;;;5134275;27;20203;-66
2021/03/22 09:34:05;;;;;;;65.45;5.28;;;7.60;1.00;;;;;;5133935;27;20233;-65
2021/03/22 09:36:36;;;;;;;64.55;6.50;;;7.60;1.00;;;;;;5133849;27;20299;-65
2021/03/22 09:39:07;;;;;;;66.63;5.30;;;7.50;1.00;;;;;;5134077;27;20650;-65
2021/03/22 09:42:05;;;;;;;68.68;5.55;;;7.50;1.00;;;;;;5133325;27;20588;-65
2021/03/22 09:44:33;;;;;;;60.80;5.03;;;7.40;1.00;;;;;;5099125;27;20340;-65
2021/03/22 09:47:16;;;;;;;59.90;3.90;;;7.50;1.00;;;;;;5134041;27;20274;-65
2021/03/22 09:50:15;;;;;;;64.43;5.20;;;7.60;1.00;;;;;;5133873;27;20293;-66
2021/03/22 09:53:13;;;;;;;62.03;4.75;;;7.70;1.00;;;;;;5130893;27;20207;-66
2021/03/22 09:55:45;;;;;;;61.88;4.95;;;7.80;1.00;;;;;;5133594;27;20748;-65
2021/03/22 09:58:25;;;;;;;65.55;4.68;;;7.90;1.00;;;;;;5133655;27;20320;-65
2021/03/22 10:00:56;;;;;;;65.78;4.28;;;8.20;1.00;;;;;;5133702;27;20676;-65
2021/03/22 10:04:05;;;;;;;61.87;4.80;;;8.50;1.00;;;;;;5133780;27;20251;-66
2021/03/22 10:07:10;;;;;;;60.47;4.13;;;8.80;1.00;;;;;;5133304;27;20855;-65
2021/03/22 10:09:43;;;;;;;63.87;4.30;;;9.20;1.00;;;;;;5133764;27;20441;-65
2021/03/22 10:12:16;;;;;;;62.93;4.57;;;9.40;1.00;;;;;;5133580;27;20819;-65
2021/03/22 10:14:46;;;;;;;60.60;4.40;;;9.60;1.00;;;;;;5133514;27;20530;-65
2021/03/22 10:17:27;;;;;;;63.80;4.63;;;9.60;1.00;;;;;;5133161;27;20486;-65
2021/03/22 10:20:00;;;;;;;67.87;4.63;;;9.40;1.00;;;;;;5133133;27;20942;-65
2021/03/22 10:22:27;;;;;;;63.03;5.50;;;9.20;1.00;;;;;;5133145;27;20987;-65
2021/03/22 10:25:02;;;;;;;63.40;4.60;;;8.70;1.00;;;;;;5133302;27;20536;-65
2021/03/22 10:27:30;;;;;;;63.57;5.87;;;8.30;1.00;;;;;;5133188;27;20493;-65
2021/03/22 10:30:10;;;;;;;67.65;4.47;;;8.00;1.00;;;;;;5133119;27;20446;-65
2021/03/22 10:32:39;;;;;;;68.77;4.50;;;7.80;1.00;;;;;;5133101;27;20293;-66
2021/03/22 10:35:10;;;;;;;64.07;4.90;;;7.70;1.00;;;;;;5133124;27;20553;-66
2021/03/22 10:37:41;;;;;;;70.60;4.78;;;7.60;1.00;;;;;;5132933;27;20320;-65
2021/03/22 10:40:22;;;;;;;61.20;4.78;;;7.60;1.00;;;;;;5132840;27;20294;-65
2021/03/22 10:42:50;;;;;;;60.50;4.65;;;7.60;1.00;;;;;;5132811;27;20649;-65
2021/03/22 10:45:34;;;;;;;62.05;4.50;;;7.60;1.00;;;;;;5132937;27;20221;-65
2021/03/22 10:48:21;;;;;;;60.17;3.97;;;7.60;1.00;;;;;;5130654;27;20225;-65
2021/03/22 10:50:57;;;;;;;64.28;4.63;;;7.60;1.00;;;;;;5132624;27;20235;-65
2021/03/22 10:53:24;;;;;;;60.55;3.70;;;7.60;1.00;;;;;;5132887;27;20210;-65
2021/03/22 10:55:51;;;;;;;62.35;4.75;;;7.50;1.00;;;;;;5133186;27;20266;-66
2021/03/22 10:58:24;;;;;;;60.58;3.72;;;7.50;1.00;;;;;;5132729;27;20226;-66
2021/03/22 11:00:58;;;;;;;67.85;3.95;;;7.50;1.00;;;;;;5132838;27;20665;-65
2021/03/22 11:03:25;;;;;;;70.85;4.50;;;7.50;1.00;;;;;;5132887;27;20199;-65
2021/03/22 11:05:54;;;;;;;63.33;3.97;;;7.60;1.00;;;;;;5132409;27;20238;-65
2021/03/22 11:08:24;;;;;;;61.55;3.95;;;7.70;1.00;;;;;;5132469;27;20220;-64
2021/03/22 11:10:58;;;;;;;59.95;3.75;;;7.90;1.00;;;;;;5133036;27;20298;-65
2021/03/22 11:13:28;;;;;;;59.25;4.53;;;8.10;1.00;;;;;;5132464;27;20235;-66
2021/03/22 11:15:54;;;;;;;58.80;4.10;;;8.30;1.00;;;;;;5132290;27;20235;-65
2021/03/22 11:18:22;;;;;;;63.63;4.07;;;8.40;1.00;;;;;;5131208;27;20660;-65
2021/03/22 11:20:51;;;;;;;60.57;3.93;;;8.50;1.00;;;;;;5132627;27;20818;-65
2021/03/22 11:23:26;;;;;;;62.90;4.43;;;8.60;1.00;;;;;;5132285;27;20479;-65
2021/03/22 11:25:54;;;;;;;63.70;4.90;;;8.70;1.00;;;;;;5132407;27;20971;-66
2021/03/22 11:28:27;;;;;;;64.68;3.90;;;8.90;1.00;;;;;;5132162;27;20535;-66
2021/03/22 11:31:01;;;;;;;61.13;4.00;;;8.90;1.00;;;;;;5132596;27;20201;-65
2021/03/22 11:33:35;;;;;;;64.23;4.53;;;9.20;1.00;;;;;;5132273;27;20442;-65
2021/03/22 11:36:06;;;;;;;60.20;3.67;;;9.30;1.00;;;;;;5132191;27;20511;-65
2021/03/22 11:38:37;;;;;;;59.90;3.60;;;9.40;1.00;;;;;;5132148;27;20491;-66
2021/03/22 11:41:04;;;;;;;63.43;4.33;;;9.50;1.00;;;;;;5132180;27;20538;-65
2021/03/22 11:43:33;;;;;;;64.27;3.97;;;9.60;1.00;;;;;;5132178;27;20447;-65
2021/03/22 11:46:15;;;;;;;58.93;3.50;;;9.60;1.00;;;;;;5132326;27;20539;-65
2021/03/22 11:48:41;;;;;;;58.97;4.20;;;9.60;1.00;;;;;;5131961;27;21010;-66
2021/03/22 11:51:10;;;;;;;63.83;4.67;;;9.60;1.00;;;;;;5132169;27;20885;-65
2021/03/22 11:53:58;;;;;;;61.03;4.20;;;9.70;1.00;;;;;;5131802;27;20951;-65
2021/03/22 11:56:28;;;;;;;57.83;3.77;;;9.70;1.00;;;;;;5132070;27;20527;-65
2021/03/22 11:59:18;;;;;;;59.93;4.60;;;9.60;1.00;;;;;;5131823;27;20570;-65
2021/03/22 12:01:59;;;;;;;61.17;5.10;;;9.50;1.00;;;;;;5131901;27;20988;-65
2021/03/22 12:04:26;;;;;;;61.17;3.50;;;9.40;1.00;;;;;;5134876;27;20430;-65
2021/03/22 12:07:00;;;;;;;63.77;4.40;;;9.40;1.00;;;;;;5135799;27;21022;-65
2021/03/22 12:09:28;;;;;;;62.33;3.77;;;9.30;1.00;;;;;;5135858;27;20828;-65
2021/03/22 12:11:56;;;;;;;58.27;4.10;;;9.20;1.00;;;;;;5135734;27;20515;-66
2021/03/22 12:14:23;;;;;;;60.30;3.80;;;9.10;1.00;;;;;;5135545;27;20457;-65
2021/03/22 12:16:55;;;;;;;60.33;4.43;;;9.00;1.00;;;;;;5135536;27;20526;-65
2021/03/22 12:19:28;;;;;;;58.73;3.77;;;8.90;1.00;;;;;;5135792;27;20479;-65
2021/03/22 12:21:54;;;;;;;62.50;5.70;;;8.80;1.00;;;;;;5135936;27;20443;-66
2021/03/22 12:24:21;;;;;;;59.70;3.80;;;8.70;1.00;;;;;;5135590;27;20545;-66
2021/03/22 12:26:47;;;;;;;60.97;4.00;;;8.50;1.00;;;;;;5135365;27;20445;-65
2021/03/22 12:29:14;;;;;;;64.33;4.20;;;8.30;1.00;;;;;;5136012;27;20487;-65
2021/03/22 12:31:43;;;;;;;61.97;5.07;;;8.10;1.00;;;;;;5135699;27;20920;-66
2021/03/22 12:34:14;;;;;;;64.80;4.40;;;8.00;1.00;;;;;;5135159;27;20246;-65
2021/03/22 12:36:40;;;;;;;62.60;4.53;;;8.00;1.00;;;;;;5135215;27;20665;-66
2021/03/22 12:39:11;;;;;;;61.88;4.43;;;8.00;1.00;;;;;;5135247;27;20456;-65
2021/03/22 12:41:38;;;;;;;59.90;4.22;;;8.00;1.00;;;;;;5135546;27;20695;-65
2021/03/22 12:44:05;;;;;;;59.50;4.30;;;8.20;1.00;;;;;;5135056;27;20763;-65
2021/03/22 12:46:32;;;;;;;61.15;3.85;;;8.30;1.00;;;;;;5135175;27;20522;-65
2021/03/22 12:48:58;;;;;;;60.67;4.33;;;8.20;1.00;;;;;;5135140;27;20311;-65
2021/03/22 12:51:24;;;;;;;59.93;3.60;;;8.20;1.00;;;;;;5135073;27;20459;-66
2021/03/22 12:53:51;;;;;;;60.97;4.07;;;8.10;1.00;;;;;;5134684;27;20560;-65
2021/03/22 12:56:19;;;;;;;59.80;3.50;;;8.00;1.00;;;;;;5134935;27;20676;-65
2021/03/22 12:58:46;;;;;;;58.47;3.30;;;7.90;1.00;;;;;;5134934;27;20524;-67
2021/03/22 13:01:15;;;;;;;63.65;3.88;;;7.80;1.00;;;;;;5134995;27;20465;-65
2021/03/22 13:03:42;;;;;;;60.10;3.90;;;7.70;1.00;;;;;;5135060;27;20209;-65
2021/03/22 13:06:09;;;;;;;62.13;4.05;;;7.60;1.00;;;;;;5134807;27;20206;-65
2021/03/22 13:08:35;;;;;;;60.33;4.15;;;7.60;1.00;;;;;;5134408;27;20229;-66
2021/03/22 13:11:02;;;;;;;62.53;4.00;;;7.50;1.00;;;;;;5134849;27;20637;-65
2021/03/22 13:13:28;;;;;;;58.53;3.63;;;7.50;1.00;;;;;;5134667;27;20291;-66
2021/03/22 13:15:55;;;;;;;58.30;3.22;;;7.50;1.00;;;;;;5133285;27;20586;-66
2021/03/22 13:18:25;;;;;;;65.47;4.38;;;7.60;1.00;;;;;;5134329;27;20259;-66
2021/03/22 13:20:55;;;;;;;62.33;4.07;;;7.80;1.00;;;;;;5134442;27;20201;-66
2021/03/22 13:23:22;;;;;;;59.10;4.40;;;7.90;1.00;;;;;;5134365;27;20203;-66